createdAt,value
2022-09-28T00:01:40.439Z,10.65
2022-09-28T00:04:28.947Z,10.71
2022-09-28T00:07:18.707Z,10.70
2022-09-28T00:10:08.153Z,10.63
2022-09-28T00:12:56.664Z,10.61
2022-09-28T00:15:45.074Z,10.88
2022-09-28T00:18:33.743Z,10.77
2022-09-28T00:21:23.591Z,10.69
2022-09-28T00:24:15.900Z,10.72
2022-09-28T00:27:04.596Z,10.55
2022-09-28T00:29:53.046Z,10.61
2022-09-28T00:32:41.487Z,10.66
2022-09-28T00:35:29.896Z,10.68
2022-09-28T00:38:18.387Z,10.67
2022-09-28T00:41:08.256Z,10.66
2022-09-28T00:44:31.717Z,10.76
2022-09-28T00:47:32.147Z,10.71
2022-09-28T00:50:26.369Z,10.73
2022-09-28T00:53:19.023Z,10.70
2022-09-28T00:56:11.355Z,10.68
2022-09-28T00:59:01.032Z,10.72
2022-09-28T01:01:49.593Z,10.72
2022-09-28T01:04:38.421Z,10.73
2022-09-28T01:07:26.867Z,10.72
2022-09-28T01:10:15.617Z,10.81
2022-09-28T01:13:05.553Z,10.84
2022-09-28T01:15:57.915Z,10.86
2022-09-28T01:18:53.729Z,10.81
2022-09-28T01:21:50.627Z,10.79
2022-09-28T01:24:41.738Z,10.78
2022-09-28T01:27:34.148Z,10.49
2022-09-28T01:30:22.930Z,10.71
2022-09-28T01:33:14.700Z,10.82
2022-09-28T01:36:07.344Z,10.81
2022-09-28T01:38:57.372Z,10.84
2022-09-28T01:41:47.377Z,10.78
2022-09-28T01:44:39.873Z,10.94
2022-09-28T01:47:33.003Z,10.95
2022-09-28T01:50:24.059Z,10.93
2022-09-28T01:53:16.864Z,10.94
2022-09-28T01:56:08.403Z,10.97
2022-09-28T01:59:00.847Z,11.00
2022-09-28T02:01:54.194Z,11.11
2022-09-28T02:04:45.151Z,10.93
2022-09-28T02:07:36.417Z,10.96
2022-09-28T02:10:27.156Z,10.98
2022-09-28T02:13:18.178Z,10.99
2022-09-28T02:16:11.680Z,11.23
2022-09-28T02:19:01.688Z,11.22
2022-09-28T02:21:55.683Z,11.20
2022-09-28T02:24:47.475Z,11.19
2022-09-28T02:27:38.998Z,11.08
2022-09-28T02:30:27.723Z,11.10
2022-09-28T02:33:19.443Z,11.03
2022-09-28T02:36:09.491Z,10.99
2022-09-28T02:38:58.634Z,10.94
2022-09-28T02:41:56.020Z,10.86
2022-09-28T02:45:04.521Z,10.84
2022-09-28T02:48:04.543Z,10.77
2022-09-28T02:51:01.950Z,10.75
2022-09-28T02:54:02.384Z,10.73
2022-09-28T02:57:03.020Z,10.71
2022-09-28T02:59:54.705Z,10.68
2022-09-28T03:02:53.286Z,10.62
2022-09-28T03:05:46.520Z,10.65
2022-09-28T03:08:38.758Z,10.63
2022-09-28T03:11:32.168Z,10.61
2022-09-28T03:14:21.720Z,10.60
2022-09-28T03:17:10.170Z,10.68
2022-09-28T03:19:58.594Z,10.72
2022-09-28T03:23:00.502Z,10.52
2022-09-28T03:25:56.061Z,10.74
2022-09-28T03:28:45.824Z,10.69
2022-09-28T03:31:35.093Z,10.68
2022-09-28T03:34:23.597Z,10.73
2022-09-28T03:37:12.036Z,10.75
2022-09-28T03:40:00.451Z,10.78
2022-09-28T03:42:48.913Z,10.79
2022-09-28T03:45:38.777Z,10.82
2022-09-28T03:48:32.127Z,10.69
2022-09-28T03:51:21.220Z,10.66
2022-09-28T03:54:09.674Z,10.67
2022-09-28T03:56:58.170Z,10.68
2022-09-28T03:59:46.603Z,10.69
2022-09-28T04:02:36.478Z,10.62
2022-09-28T04:05:25.073Z,10.64
2022-09-28T04:08:13.505Z,10.52
2022-09-28T04:11:02.563Z,10.59
2022-09-28T04:13:51.218Z,10.59
2022-09-28T04:16:39.702Z,10.56
2022-09-28T04:19:29.513Z,10.61
2022-09-28T04:22:17.923Z,10.63
2022-09-28T04:25:06.596Z,10.63
2022-09-28T04:28:12.652Z,10.59
2022-09-28T04:31:01.080Z,10.60
2022-09-28T04:33:49.561Z,10.68
2022-09-28T04:36:39.334Z,10.55
2022-09-28T04:39:27.791Z,10.58
2022-09-28T04:42:16.245Z,10.45
2022-09-28T04:45:05.734Z,10.63
2022-09-28T04:47:54.582Z,10.56
2022-09-28T04:50:42.979Z,10.65
2022-09-28T04:53:32.824Z,10.55
2022-09-28T04:56:21.384Z,10.64
2022-09-28T04:59:09.907Z,10.60
2022-09-28T05:01:58.533Z,10.59
2022-09-28T05:04:47.002Z,10.54
2022-09-28T05:07:35.500Z,10.55
2022-09-28T05:10:25.348Z,10.55
2022-09-28T05:13:15.229Z,10.43
2022-09-28T05:16:05.604Z,10.54
2022-09-28T05:18:56.225Z,10.52
2022-09-28T05:21:45.353Z,10.55
2022-09-28T05:24:33.979Z,10.46
2022-09-28T05:27:23.852Z,10.52
2022-09-28T05:30:13.244Z,10.55
2022-09-28T05:33:01.805Z,10.58
2022-09-28T05:35:54.440Z,10.64
2022-09-28T05:38:44.440Z,10.67
2022-09-28T05:41:33.050Z,10.60
2022-09-28T05:44:22.839Z,10.62
2022-09-28T05:47:11.533Z,10.63
2022-09-28T05:49:59.946Z,10.65
2022-09-28T05:52:50.133Z,10.64
2022-09-28T05:55:39.818Z,10.59
2022-09-28T05:58:28.880Z,10.53
2022-09-28T06:01:18.698Z,10.74
2022-09-28T06:04:07.896Z,10.79
2022-09-28T06:06:56.341Z,10.74
2022-09-28T06:09:44.980Z,10.75
2022-09-28T06:12:34.814Z,10.81
2022-09-28T06:15:23.879Z,10.71
2022-09-28T06:18:15.154Z,10.31
2022-09-28T06:21:03.899Z,10.77
2022-09-28T06:23:52.324Z,10.78
2022-09-28T06:26:40.900Z,10.77
2022-09-28T06:29:29.909Z,10.79
2022-09-28T06:32:18.359Z,10.91
2022-09-28T06:35:09.893Z,10.71
2022-09-28T06:37:59.068Z,10.95
2022-09-28T06:40:47.582Z,10.88
2022-09-28T06:43:36.663Z,10.98
2022-09-28T06:46:25.469Z,11.00
2022-09-28T06:49:18.627Z,10.97
2022-09-28T06:52:09.162Z,10.97
2022-09-28T06:54:57.648Z,11.00
2022-09-28T06:57:46.057Z,10.97
2022-09-28T07:00:36.442Z,10.88
2022-09-28T07:03:24.874Z,10.99
2022-09-28T07:06:13.767Z,10.97
2022-09-28T07:09:27.858Z,11.04
2022-09-28T07:12:14.825Z,11.00
2022-09-28T07:15:03.801Z,11.06
2022-09-28T07:18:02.748Z,11.13
2022-09-28T07:20:54.670Z,11.23
2022-09-28T07:23:52.105Z,11.34
2022-09-28T07:26:45.381Z,11.38
2022-09-28T07:29:33.845Z,11.41
2022-09-28T07:32:22.503Z,11.42
2022-09-28T07:35:10.999Z,11.55
2022-09-28T07:38:01.417Z,11.61
2022-09-28T07:41:07.566Z,11.59
2022-09-28T07:43:58.972Z,11.68
2022-09-28T07:46:47.404Z,11.77
2022-09-28T07:49:36.066Z,11.88
2022-09-28T07:52:26.077Z,11.98
2022-09-28T07:55:14.608Z,12.21
2022-09-28T07:58:03.052Z,12.21
2022-09-28T08:00:52.903Z,12.21
2022-09-28T08:03:45.207Z,12.17
2022-09-28T08:06:33.660Z,12.39
2022-09-28T08:09:22.138Z,12.34
2022-09-28T08:12:11.198Z,12.37
2022-09-28T08:15:00.164Z,12.48
2022-09-28T08:17:50.505Z,12.42
2022-09-28T08:20:59.129Z,12.46
2022-09-28T08:23:47.677Z,12.23
2022-09-28T08:26:36.205Z,12.20
2022-09-28T08:29:24.626Z,12.22
2022-09-28T08:32:13.124Z,12.18
2022-09-28T08:35:03.136Z,12.12
2022-09-28T08:37:55.657Z,12.15
2022-09-28T08:40:49.560Z,12.17
2022-09-28T08:43:53.453Z,12.17
2022-09-28T08:46:43.729Z,12.27
2022-09-28T08:49:36.718Z,12.13
2022-09-28T08:52:29.776Z,12.29
2022-09-28T08:55:23.093Z,12.09
2022-09-28T08:58:13.415Z,12.30
2022-09-28T09:01:04.582Z,12.29
2022-09-28T09:03:53.335Z,12.25
2022-09-28T09:07:04.984Z,12.20
2022-09-28T09:10:02.477Z,12.22
2022-09-28T09:13:01.001Z,12.14
2022-09-28T09:15:54.056Z,12.23
2022-09-28T09:18:45.590Z,12.41
2022-09-28T09:21:41.543Z,12.50
2022-09-28T09:24:39.873Z,12.56
2022-09-28T09:27:44.270Z,12.81
2022-09-28T09:30:36.155Z,12.98
2022-09-28T09:33:47.700Z,13.26
2022-09-28T09:36:47.241Z,13.39
2022-09-28T09:39:44.847Z,13.09
2022-09-28T09:42:45.963Z,13.83
2022-09-28T09:45:48.671Z,13.74
2022-09-28T09:48:41.701Z,13.91
2022-09-28T09:51:37.534Z,13.83
2022-09-28T09:54:28.618Z,13.49
2022-09-28T09:57:20.231Z,13.34
2022-09-28T10:00:14.897Z,13.20
2022-09-28T10:03:03.364Z,13.10
2022-09-28T10:05:57.480Z,13.28
2022-09-28T10:08:49.994Z,13.46
2022-09-28T10:11:43.979Z,13.66
2022-09-28T10:14:32.457Z,14.04
2022-09-28T10:17:27.139Z,14.26
2022-09-28T10:20:16.365Z,13.93
2022-09-28T10:23:06.765Z,13.57
2022-09-28T10:25:57.999Z,13.48
2022-09-28T10:28:49.665Z,13.37
2022-09-28T10:31:39.875Z,13.17
2022-09-28T10:34:31.066Z,13.18
2022-09-28T10:37:19.820Z,13.20
2022-09-28T10:40:30.220Z,13.38
2022-09-28T10:43:22.820Z,13.36
2022-09-28T10:46:13.610Z,13.65
2022-09-28T10:49:04.547Z,13.29
2022-09-28T10:51:56.191Z,14.47
2022-09-28T10:54:54.063Z,14.73
2022-09-28T10:57:42.598Z,14.69
2022-09-28T11:00:34.439Z,14.65
2022-09-28T11:03:25.291Z,14.50
2022-09-28T11:06:13.830Z,14.39
2022-09-28T11:09:05.292Z,14.12
2022-09-28T11:18:22.496Z,14.49
2022-09-28T11:21:14.242Z,14.60
2022-09-28T11:24:07.272Z,14.76
2022-09-28T11:26:57.500Z,14.56
2022-09-28T11:29:46.924Z,13.92
2022-09-28T11:32:43.918Z,14.44
2022-09-28T11:35:44.019Z,14.40
2022-09-28T11:38:34.761Z,14.16
2022-09-28T11:41:37.936Z,14.10
2022-09-28T11:44:44.645Z,13.79
2022-09-28T11:47:46.907Z,13.80
2022-09-28T11:50:43.925Z,13.87
2022-09-28T11:53:37.110Z,13.89
2022-09-28T11:56:34.557Z,13.72
2022-09-28T11:59:27.736Z,13.75
2022-09-28T12:02:18.875Z,13.83
2022-09-28T12:05:18.514Z,13.83
2022-09-28T12:08:14.796Z,13.75
2022-09-28T12:11:09.709Z,13.70
2022-09-28T12:14:10.091Z,13.80
2022-09-28T12:17:07.980Z,14.10
2022-09-28T12:20:00.663Z,14.48
2022-09-28T12:22:59.464Z,14.79
2022-09-28T12:25:50.798Z,14.96
2022-09-28T12:28:45.428Z,15.13
2022-09-28T12:31:39.380Z,15.10
2022-09-28T12:34:29.603Z,15.16
2022-09-28T12:37:28.868Z,15.44
2022-09-28T12:40:34.459Z,15.67
2022-09-28T12:43:33.752Z,15.79
2022-09-28T12:46:48.901Z,15.42
2022-09-28T12:53:38.739Z,14.43
2022-09-28T12:56:32.777Z,14.35
2022-09-28T12:59:26.634Z,14.90
2022-09-28T13:02:33.429Z,14.88
2022-09-28T13:05:34.401Z,14.76
2022-09-28T13:08:27.867Z,14.65
2022-09-28T13:11:22.355Z,14.44
2022-09-28T13:14:36.440Z,14.46
2022-09-28T13:17:38.732Z,14.33
2022-09-28T13:20:36.794Z,14.26
2022-09-28T13:23:28.592Z,14.24
2022-09-28T13:26:23.602Z,14.20
2022-09-28T13:29:14.580Z,13.88
2022-09-28T13:32:04.224Z,14.65
2022-09-28T13:34:54.735Z,14.89
2022-09-28T13:37:43.231Z,15.06
2022-09-28T13:41:01.463Z,15.49
2022-09-28T13:44:16.518Z,15.99
2022-09-28T13:47:20.529Z,16.29
2022-09-28T13:50:21.430Z,16.12
2022-09-28T13:53:19.124Z,16.40
2022-09-28T13:56:22.977Z,15.78
2022-09-28T13:59:17.257Z,16.34
2022-09-28T14:02:13.602Z,16.04
2022-09-28T14:05:04.478Z,15.81
2022-09-28T14:07:59.630Z,14.91
2022-09-28T14:10:51.815Z,13.98
2022-09-28T14:14:00.274Z,15.12
2022-09-28T14:16:48.753Z,15.07
2022-09-28T14:19:37.244Z,14.96
2022-09-28T14:22:28.875Z,14.80
2022-09-28T14:25:23.997Z,14.68
2022-09-28T14:28:37.682Z,14.62
2022-09-28T14:31:27.621Z,14.64
2022-09-28T14:34:34.538Z,14.41
2022-09-28T14:37:44.120Z,14.50
2022-09-28T14:41:10.978Z,14.33
2022-09-28T14:44:02.547Z,14.46
2022-09-28T14:46:51.004Z,14.40
2022-09-28T14:49:48.888Z,14.55
2022-09-28T14:52:42.370Z,14.25
2022-09-28T14:55:35.778Z,14.33
2022-09-28T14:58:26.697Z,14.45
2022-09-28T15:01:20.178Z,14.18
2022-09-28T15:04:11.467Z,14.41
2022-09-28T15:07:00.201Z,14.46
2022-09-28T15:09:53.310Z,14.24
2022-09-28T15:12:44.718Z,14.36
2022-09-28T15:15:35.567Z,14.27
2022-09-28T15:18:58.570Z,14.29
2022-09-28T15:21:50.100Z,14.25
2022-09-28T15:24:40.186Z,14.14
2022-09-28T15:27:35.629Z,14.11
2022-09-28T15:30:31.719Z,13.90
2022-09-28T15:33:43.059Z,13.93
2022-09-28T15:36:33.794Z,13.90
2022-09-28T15:39:25.443Z,13.76
2022-09-28T15:42:13.987Z,13.52
2022-09-28T15:45:17.363Z,13.41
2022-09-28T15:48:27.267Z,13.24
2022-09-28T15:51:15.805Z,13.20
2022-09-28T15:54:05.925Z,13.14
2022-09-28T15:56:57.740Z,13.00
2022-09-28T15:59:56.767Z,12.14
2022-09-28T16:03:02.234Z,12.83
2022-09-28T16:05:53.717Z,12.79
2022-09-28T16:08:43.748Z,12.56
2022-09-28T16:11:37.884Z,12.80
2022-09-28T16:14:27.392Z,12.62
2022-09-28T16:17:18.448Z,12.62
2022-09-28T16:20:23.122Z,12.56
2022-09-28T16:23:21.250Z,12.56
2022-09-28T16:26:15.739Z,12.41
2022-09-28T16:29:10.048Z,12.41
2022-09-28T16:31:58.479Z,12.41
2022-09-28T16:34:46.987Z,12.49
2022-09-28T16:37:35.428Z,12.19
2022-09-28T16:40:25.426Z,12.31
2022-09-28T16:43:19.505Z,12.33
2022-09-28T16:46:10.232Z,12.23
2022-09-28T16:49:01.504Z,12.15
2022-09-28T16:51:50.092Z,12.16
2022-09-28T16:54:56.127Z,12.01
2022-09-28T16:57:46.828Z,11.84
2022-09-28T17:00:35.396Z,12.18
2022-09-28T17:03:24.386Z,12.14
2022-09-28T17:06:13.603Z,12.02
2022-09-28T17:09:06.767Z,12.08
2022-09-28T17:11:56.860Z,12.03
2022-09-28T17:14:46.821Z,12.02
2022-09-28T17:17:35.373Z,12.05
2022-09-28T17:20:26.799Z,11.80
2022-09-28T17:23:15.321Z,11.82
2022-09-28T17:26:05.399Z,11.52
2022-09-28T17:28:54.790Z,11.17
2022-09-28T17:31:45.638Z,11.37
2022-09-28T17:34:34.132Z,11.26
2022-09-28T17:37:22.606Z,11.22
2022-09-28T17:40:20.113Z,11.19
2022-09-28T17:43:08.672Z,11.14
2022-09-28T17:45:57.321Z,11.13
2022-09-28T17:48:47.467Z,10.91
2022-09-28T17:51:38.235Z,10.77
2022-09-28T17:54:27.198Z,10.98
2022-09-28T17:57:15.701Z,11.00
2022-09-28T18:00:05.300Z,10.96
2022-09-28T18:02:54.325Z,10.93
2022-09-28T18:05:44.607Z,10.86
2022-09-28T18:08:33.663Z,10.56
2022-09-28T18:11:22.609Z,10.73
2022-09-28T18:14:11.477Z,10.66
2022-09-28T18:17:00.224Z,10.64
2022-09-28T18:19:48.892Z,10.68
2022-09-28T18:22:39.020Z,10.64
2022-09-28T18:25:27.678Z,10.66
2022-09-28T18:28:16.222Z,10.86
2022-09-28T18:31:08.620Z,10.65
2022-09-28T18:34:01.838Z,10.64
2022-09-28T18:36:50.466Z,10.56
2022-09-28T18:39:40.375Z,10.34
2022-09-28T18:42:28.928Z,10.36
2022-09-28T18:45:17.855Z,10.16
2022-09-28T18:48:06.452Z,9.65
2022-09-28T18:50:54.957Z,10.27
2022-09-28T18:53:43.568Z,10.20
2022-09-28T18:56:34.215Z,10.27
2022-09-28T18:59:22.814Z,10.26
2022-09-28T19:02:11.915Z,10.08
2022-09-28T19:05:00.649Z,10.01
2022-09-28T19:07:49.331Z,10.02
2022-09-28T19:10:37.824Z,10.04
2022-09-28T19:13:29.246Z,10.10
2022-09-28T19:16:20.607Z,9.42
2022-09-28T19:19:10.197Z,10.01
2022-09-28T19:21:58.923Z,9.73
2022-09-28T19:24:47.532Z,9.87
2022-09-28T19:27:36.039Z,9.73
2022-09-28T19:30:26.021Z,9.66
2022-09-28T19:33:14.698Z,9.62
2022-09-28T19:36:05.004Z,9.65
2022-09-28T19:38:53.888Z,9.55
2022-09-28T19:41:49.199Z,9.56
2022-09-28T19:44:39.172Z,8.73
2022-09-28T19:47:29.143Z,8.95
2022-09-28T19:50:17.803Z,9.33
2022-09-28T19:53:07.686Z,9.49
2022-09-28T19:55:57.781Z,9.42
2022-09-28T19:58:46.305Z,9.36
2022-09-28T20:01:34.955Z,9.36
2022-09-28T20:04:24.807Z,9.41
2022-09-28T20:07:13.425Z,9.38
2022-09-28T20:10:02.239Z,9.18
2022-09-28T20:12:52.495Z,9.32
2022-09-28T20:15:41.562Z,9.38
2022-09-28T20:18:33.315Z,9.34
2022-09-28T20:21:26.798Z,9.33
2022-09-28T20:24:16.520Z,9.29
2022-09-28T20:27:05.078Z,9.28
2022-09-28T20:29:53.704Z,9.12
2022-09-28T20:32:45.090Z,9.12
2022-09-28T20:35:40.367Z,9.16
2022-09-28T20:38:30.249Z,9.14
2022-09-28T20:41:21.887Z,9.18
2022-09-28T20:44:10.599Z,9.14
2022-09-28T20:46:59.200Z,9.11
2022-09-28T20:49:47.703Z,9.05
2022-09-28T20:52:36.306Z,9.05
2022-09-28T20:55:26.138Z,8.99
2022-09-28T20:58:14.793Z,9.01
2022-09-28T21:01:04.717Z,8.91
2022-09-28T21:03:54.449Z,8.96
2022-09-28T21:06:43.441Z,9.00
2022-09-28T21:09:32.395Z,8.65
2022-09-28T21:12:22.225Z,8.90
2022-09-28T21:15:11.674Z,8.93
2022-09-28T21:18:00.277Z,8.89
2022-09-28T21:20:49.402Z,8.80
2022-09-28T21:23:37.943Z,8.68
2022-09-28T21:26:29.657Z,8.76
2022-09-28T21:29:19.562Z,8.77
2022-09-28T21:32:08.194Z,8.69
2022-09-28T21:34:56.717Z,8.60
2022-09-28T21:37:46.231Z,8.54
2022-09-28T21:40:34.768Z,8.53
2022-09-28T21:43:23.342Z,8.47
2022-09-28T21:46:13.392Z,7.70
2022-09-28T21:49:02.561Z,8.31
2022-09-28T21:51:52.028Z,8.30
2022-09-28T21:54:42.516Z,8.17
2022-09-28T21:57:30.963Z,8.18
2022-09-28T22:00:23.125Z,8.13
2022-09-28T22:03:12.900Z,8.11
2022-09-28T22:06:01.432Z,8.07
2022-09-28T22:08:50.592Z,7.93
2022-09-28T22:11:39.072Z,7.90
2022-09-28T22:14:27.743Z,7.89
2022-09-28T22:17:16.229Z,7.80
2022-09-28T22:20:07.102Z,7.61
2022-09-28T22:22:55.501Z,7.64
2022-09-28T22:25:45.659Z,7.61
2022-09-28T22:28:34.607Z,7.55
2022-09-28T22:31:25.821Z,7.54
2022-09-28T22:34:14.366Z,7.48
2022-09-28T22:37:04.626Z,7.50
2022-09-28T22:39:53.585Z,7.45
2022-09-28T22:42:42.809Z,7.53
2022-09-28T22:45:31.247Z,7.48
2022-09-28T22:48:19.641Z,7.45
2022-09-28T22:51:08.369Z,7.45
2022-09-28T22:53:58.484Z,7.37
2022-09-28T22:56:46.922Z,7.30
2022-09-28T22:59:35.328Z,7.29
2022-09-28T23:02:23.777Z,7.25
2022-09-28T23:05:16.950Z,7.27
2022-09-28T23:08:05.512Z,7.23
2022-09-28T23:10:55.288Z,7.18
2022-09-28T23:13:43.942Z,7.17
2022-09-28T23:16:32.645Z,7.10
2022-09-28T23:19:21.102Z,7.00
2022-09-28T23:22:09.616Z,6.86
2022-09-28T23:24:58.106Z,6.63
2022-09-28T23:27:48.692Z,6.99
2022-09-28T23:30:37.137Z,6.98
2022-09-28T23:33:25.578Z,6.99
2022-09-28T23:36:14.353Z,6.92
2022-09-28T23:39:03.517Z,6.92
2022-09-28T23:41:51.951Z,6.85
2022-09-28T23:44:41.725Z,6.70
2022-09-28T23:47:30.169Z,6.71
2022-09-28T23:50:18.568Z,6.79
2022-09-28T23:53:06.998Z,6.75
2022-09-28T23:55:56.655Z,6.55
2022-09-28T23:58:45.086Z,6.71
